Time;durP1;ratioP1;P1;durP2;ratioP2;P2;SDS_P1;SDS_P2;PMS_P1;PMS_P2;Temp;Humidity;BMP_temperature;BMP_pressure;BME280_temperature;BME280_humidity;BME280_pressure;Samples;Min_cycle;Max_cycle;Signal;HPM_P1;HPM_P2
2023/04/16 00:01:48;;;;;;;2.30;2.00;;;;;;;13.91;41.31;94387.69;4984496;28;20212;-71
2023/04/16 00:04:14;;;;;;;4.47;2.65;;;;;;;13.94;41.23;94387.31;4993293;28;20227;-70
2023/04/16 00:06:40;;;;;;;3.22;2.67;;;;;;;13.88;41.35;94380.94;4989960;28;20228;-70
2023/04/16 00:09:05;;;;;;;2.97;2.60;;;;;;;13.86;41.41;94390.06;4991948;28;20620;-71
2023/04/16 00:11:30;;;;;;;6.65;2.92;;;;;;;13.89;41.67;94389.69;4995349;28;20216;-71
2023/04/16 00:13:56;;;;;;;4.63;2.20;;;;;;;13.78;41.88;94382.25;4990664;28;20541;-71
2023/04/16 00:16:21;;;;;;;3.45;2.80;;;;;;;13.72;42.11;94383.00;4992459;28;20606;-71
2023/04/16 00:18:47;;;;;;;4.25;2.45;;;;;;;13.77;41.94;94381.44;4993472;28;20391;-71
2023/04/16 00:21:12;;;;;;;3.60;2.50;;;;;;;13.75;42.10;94382.63;4992838;28;20235;-71
2023/04/16 00:23:38;;;;;;;5.63;2.60;;;;;;;13.73;42.28;94388.09;4992655;28;20219;-70
2023/04/16 00:26:03;;;;;;;7.05;2.72;;;;;;;13.62;42.53;94378.00;4991266;28;20961;-70
2023/04/16 00:28:31;;;;;;;3.72;2.83;;;;;;;13.62;42.58;94376.19;4990469;28;20362;-70
2023/04/16 00:30:57;;;;;;;3.60;2.22;;;;;;;13.60;42.27;94380.00;4996240;28;20233;-70
2023/04/16 00:33:22;;;;;;;5.05;2.38;;;;;;;13.65;41.64;94382.91;4994096;28;20191;-70
2023/04/16 00:35:50;;;;;;;2.60;2.15;;;;;;;13.61;41.53;94376.38;4992193;28;20192;-70
2023/04/16 00:38:15;;;;;;;4.93;2.60;;;;;;;13.56;41.76;94379.56;4988409;28;20231;-70
2023/04/16 00:40:40;;;;;;;3.55;2.60;;;;;;;13.55;42.14;94388.50;4997874;28;20227;-70
2023/04/16 00:43:06;;;;;;;4.07;2.60;;;;;;;13.53;42.17;94393.16;4987258;28;20230;-70
2023/04/16 00:45:31;;;;;;;4.55;2.45;;;;;;;13.45;42.38;94382.69;4994012;28;20188;-70
2023/04/16 00:47:58;;;;;;;3.30;2.67;;;;;;;13.41;42.15;94378.78;4990796;28;20195;-70
2023/04/16 00:50:23;;;;;;;4.72;2.55;;;;;;;13.42;42.54;94373.31;4991829;28;20234;-70
2023/04/16 00:52:49;;;;;;;4.55;2.60;;;;;;;13.39;42.59;94383.41;4998625;28;20215;-70
2023/04/16 00:55:17;;;;;;;5.47;2.90;;;;;;;13.34;42.87;94385.78;4992858;28;20327;-71
2023/04/16 00:57:44;;;;;;;5.25;3.10;;;;;;;13.29;42.99;94382.91;4999709;28;20243;-70
2023/04/16 01:00:11;;;;;;;5.10;3.08;;;;;;;13.16;43.67;94384.34;4996810;28;20199;-70
2023/04/16 01:02:36;;;;;;;4.32;2.92;;;;;;;13.00;44.62;94387.97;4992508;28;20290;-70
2023/04/16 01:05:03;;;;;;;15.82;8.15;;;;;;;12.79;44.83;94386.03;4992450;28;20223;-70
2023/04/16 01:07:28;;;;;;;13.50;6.18;;;;;;;12.98;44.46;94375.97;4994716;28;20215;-70
2023/04/16 01:09:55;;;;;;;9.82;4.50;;;;;;;12.95;44.92;94385.06;4997231;28;20222;-70
2023/04/16 01:12:20;;;;;;;9.32;5.18;;;;;;;12.91;45.20;94385.59;4989066;28;20197;-70
2023/04/16 01:14:46;;;;;;;8.13;4.50;;;;;;;12.93;45.27;94384.41;4988120;28;20207;-70
2023/04/16 01:17:12;;;;;;;7.32;3.47;;;;;;;12.93;45.13;94383.59;4990653;28;20227;-70
2023/04/16 01:19:37;;;;;;;6.93;4.00;;;;;;;12.88;45.49;94389.41;4991749;28;20239;-70
2023/04/16 01:22:04;;;;;;;6.40;3.95;;;;;;;12.81;45.95;94385.88;4990865;28;20736;-70
2023/04/16 01:24:30;;;;;;;6.10;3.70;;;;;;;12.75;45.92;94382.16;4993666;28;20191;-70
2023/04/16 01:26:58;;;;;;;7.65;4.32;;;;;;;12.66;46.21;94385.03;4994643;28;20221;-70
2023/04/16 01:29:23;;;;;;;6.43;4.05;;;;;;;12.69;46.43;94380.22;4992564;28;20226;-70
2023/04/16 01:31:49;;;;;;;6.93;4.30;;;;;;;12.66;46.50;94383.22;4992428;28;20223;-70
2023/04/16 01:34:14;;;;;;;5.15;3.70;;;;;;;12.57;46.55;94382.47;4986608;28;20307;-70
2023/04/16 01:36:40;;;;;;;5.75;3.90;;;;;;;12.55;46.71;94373.91;4987585;28;20342;-70
2023/04/16 01:39:05;;;;;;;9.00;4.10;;;;;;;12.53;46.89;94373.28;4991627;28;20179;-70
2023/04/16 01:41:31;;;;;;;10.27;4.38;;;;;;;12.46;46.80;94369.72;5009250;28;20300;-71
2023/04/16 01:43:56;;;;;;;10.20;4.85;;;;;;;12.47;46.98;94367.91;4994575;28;20816;-70
2023/04/16 01:46:31;;;;;;;11.40;6.85;;;;;;;12.46;47.18;94369.72;4989346;28;20238;-70
2023/04/16 01:48:57;;;;;;;22.60;11.02;;;;;;;12.48;46.96;94364.25;4991332;28;20296;-70
2023/04/16 01:51:23;;;;;;;14.18;7.18;;;;;;;12.39;47.40;94363.53;4983136;28;20215;-69
2023/04/16 01:53:51;;;;;;;8.13;4.35;;;;;;;12.43;47.45;94361.34;4993933;28;20232;-71
2023/04/16 01:56:16;;;;;;;6.20;4.85;;;;;;;12.40;47.33;94356.44;4984999;28;20307;-70
2023/04/16 01:58:42;;;;;;;7.28;5.13;;;;;;;12.44;47.49;94358.53;4993081;28;20227;-70
2023/04/16 02:01:08;;;;;;;8.38;3.90;;;;;;;12.41;47.50;94363.38;4994019;28;20326;-69
2023/04/16 02:03:34;;;;;;;6.93;4.30;;;;;;;12.38;47.53;94363.72;4991305;28;20207;-70
2023/04/16 02:06:02;;;;;;;8.73;4.40;;;;;;;12.39;47.53;94370.63;4999129;28;20191;-70
2023/04/16 02:08:28;;;;;;;7.68;4.00;;;;;;;12.35;47.27;94363.06;5009899;28;20230;-70
2023/04/16 02:10:55;;;;;;;4.25;3.03;;;;;;;12.32;45.71;94359.97;5012211;28;20215;-70
2023/04/16 02:13:20;;;;;;;3.10;2.35;;;;;;;12.23;44.40;94364.50;4994292;28;20674;-70
2023/04/16 02:15:48;;;;;;;3.65;2.45;;;;;;;12.31;43.66;94360.97;4994212;28;20235;-70
2023/04/16 02:18:14;;;;;;;2.95;2.50;;;;;;;12.23;43.91;94355.75;4992352;28;20187;-70
2023/04/16 02:20:41;;;;;;;6.07;3.00;;;;;;;12.31;43.73;94356.50;4997798;28;20242;-70
2023/04/16 02:23:07;;;;;;;4.95;2.80;;;;;;;12.33;44.12;94351.88;4996979;28;20250;-70
2023/04/16 02:25:37;;;;;;;4.07;2.70;;;;;;;12.33;44.15;94357.16;4993287;28;20231;-70
2023/04/16 02:28:02;;;;;;;4.47;2.70;;;;;;;12.28;44.58;94350.78;4993697;28;20274;-70
2023/04/16 02:30:28;;;;;;;8.35;3.08;;;;;;;12.26;44.11;94353.59;4981907;28;20191;-70
2023/04/16 02:32:53;;;;;;;4.70;2.70;;;;;;;12.13;44.25;94350.72;5000436;28;20186;-70
2023/04/16 02:35:19;;;;;;;3.50;2.30;;;;;;;12.14;43.65;94347.94;4989500;28;20279;-70
2023/04/16 02:37:45;;;;;;;3.97;2.35;;;;;;;12.12;43.49;94355.19;4993610;28;20254;-70
2023/04/16 02:40:10;;;;;;;2.28;2.00;;;;;;;12.12;43.27;94354.38;5005172;28;20227;-71
2023/04/16 02:42:36;;;;;;;3.20;2.50;;;;;;;12.07;43.27;94347.00;4996467;28;20236;-70
2023/04/16 02:45:01;;;;;;;3.70;2.50;;;;;;;12.18;43.08;94351.03;4997197;28;20561;-70
2023/04/16 02:47:26;;;;;;;2.85;2.00;;;;;;;12.10;42.95;94341.38;4993728;28;20220;-70
2023/04/16 02:49:52;;;;;;;3.72;2.00;;;;;;;12.13;42.91;94345.47;4993405;28;20234;-70
2023/04/16 02:52:17;;;;;;;4.43;2.50;;;;;;;12.08;42.64;94339.91;4985347;28;20223;-69
2023/04/16 02:54:43;;;;;;;3.15;1.80;;;;;;;12.10;42.24;94341.38;4997200;28;20583;-69
2023/04/16 02:57:08;;;;;;;5.68;2.30;;;;;;;12.08;42.27;94337.25;4990948;28;20326;-70
2023/04/16 02:59:34;;;;;;;3.88;2.30;;;;;;;12.04;42.40;94333.38;4994521;28;20229;-70
2023/04/16 03:01:59;;;;;;;3.20;2.00;;;;;;;12.09;42.48;94338.91;5012268;28;20226;-70
2023/04/16 03:04:25;;;;;;;4.00;2.17;;;;;;;12.13;41.88;94340.19;5004064;28;20215;-70
2023/04/16 03:06:50;;;;;;;2.75;2.00;;;;;;;12.15;41.87;94343.47;4992258;28;20227;-70
2023/04/16 03:09:16;;;;;;;2.90;2.35;;;;;;;12.15;41.62;94338.19;4994463;28;20191;-69
2023/04/16 03:11:41;;;;;;;4.88;2.25;;;;;;;12.09;41.57;94338.91;4993610;28;20238;-71
2023/04/16 03:14:07;;;;;;;3.63;2.20;;;;;;;12.04;41.83;94338.63;4991620;28;20318;-70
2023/04/16 03:16:32;;;;;;;3.47;2.08;;;;;;;12.05;41.81;94342.91;4993440;28;20290;-70
2023/04/16 03:18:57;;;;;;;3.95;2.00;;;;;;;12.05;42.11;94348.16;4994539;28;20227;-70
2023/04/16 03:21:23;;;;;;;3.13;2.13;;;;;;;12.03;41.67;94340.44;4993514;28;20242;-69
2023/04/16 03:23:48;;;;;;;3.88;2.22;;;;;;;12.15;41.70;94348.75;4994385;28;20187;-70
2023/04/16 03:26:14;;;;;;;2.90;2.00;;;;;;;12.16;41.58;94339.84;5010367;28;20217;-70
2023/04/16 03:28:39;;;;;;;3.67;2.20;;;;;;;12.22;41.70;94351.50;5000325;28;20239;-70
2023/04/16 03:31:05;;;;;;;3.20;2.30;;;;;;;12.16;41.71;94345.09;4997592;28;20237;-70
2023/04/16 03:33:30;;;;;;;2.30;1.83;;;;;;;12.17;41.99;94345.94;4995210;28;20187;-70
2023/04/16 03:35:57;;;;;;;3.70;2.47;;;;;;;12.21;42.18;94347.22;4984490;28;20683;-71
2023/04/16 03:38:24;;;;;;;3.70;2.08;;;;;;;12.15;42.24;94346.09;4993661;28;20277;-71
2023/04/16 03:40:50;;;;;;;4.47;2.00;;;;;;;12.19;42.16;94344.78;4991317;28;20227;-70
2023/04/16 03:43:15;;;;;;;2.90;2.00;;;;;;;12.14;42.38;94352.38;4992537;28;20215;-71
2023/04/16 03:45:44;;;;;;;3.92;2.03;;;;;;;11.92;43.17;94354.03;4993182;28;20273;-70
2023/04/16 03:48:10;;;;;;;4.70;1.90;;;;;;;11.67;43.55;94346.25;4990760;28;20672;-70
2023/04/16 03:50:35;;;;;;;3.90;2.17;;;;;;;11.68;43.28;94341.81;4992719;28;20303;-71
2023/04/16 03:53:01;;;;;;;2.20;2.00;;;;;;;11.67;43.56;94351.53;4996169;28;20265;-70
2023/04/16 03:55:27;;;;;;;5.22;2.40;;;;;;;11.74;43.28;94358.75;4998545;28;20223;-70
2023/04/16 03:57:53;;;;;;;4.80;2.42;;;;;;;11.84;43.08;94351.41;4993586;28;20224;-71
2023/04/16 04:00:18;;;;;;;4.57;2.15;;;;;;;11.82;43.03;94359.50;4998617;28;20659;-70
2023/04/16 04:02:44;;;;;;;2.67;2.00;;;;;;;11.89;42.87;94355.22;4992389;28;20207;-71
2023/04/16 04:05:12;;;;;;;4.47;2.38;;;;;;;11.87;43.43;94362.47;4996816;28;20219;-70
2023/04/16 04:07:38;;;;;;;3.38;2.50;;;;;;;11.91;43.31;94362.94;5012376;28;20254;-71
2023/04/16 04:10:04;;;;;;;4.97;2.53;;;;;;;11.94;43.15;94372.28;5001041;28;20239;-70
2023/04/16 04:12:30;;;;;;;3.50;2.58;;;;;;;11.88;43.51;94369.38;4992534;28;20195;-71
2023/04/16 04:14:56;;;;;;;4.85;2.35;;;;;;;11.94;43.46;94372.28;4992253;28;20199;-70
2023/04/16 04:17:22;;;;;;;4.22;2.30;;;;;;;11.88;43.24;94374.63;4993880;28;20237;-71
2023/04/16 04:19:47;;;;;;;5.32;2.60;;;;;;;11.91;43.72;94379.56;4991194;28;20539;-70
2023/04/16 04:22:13;;;;;;;3.60;2.72;;;;;;;11.84;43.61;94373.34;5001764;28;20227;-70
2023/04/16 04:24:38;;;;;;;5.15;2.60;;;;;;;11.98;43.74;94379.69;5008317;28;20228;-70
2023/04/16 04:27:04;;;;;;;5.65;2.53;;;;;;;11.75;44.28;94376.19;4990921;28;20559;-70
2023/04/16 04:29:29;;;;;;;4.45;2.60;;;;;;;11.97;44.12;94388.56;4991212;28;20382;-69
2023/04/16 04:31:55;;;;;;;4.15;2.75;;;;;;;11.94;44.28;94388.09;4991720;28;20223;-71
2023/04/16 04:34:20;;;;;;;4.80;2.40;;;;;;;11.90;44.58;94395.53;4998537;28;20212;-71
2023/04/16 04:36:46;;;;;;;3.53;3.00;;;;;;;11.84;44.83;94388.28;5008135;28;20743;-71
2023/04/16 04:39:11;;;;;;;5.70;2.10;;;;;;;11.97;44.00;94391.19;4994135;28;20187;-71
2023/04/16 04:41:37;;;;;;;4.53;2.15;;;;;;;11.85;43.55;94385.50;4983738;28;20226;-70
2023/04/16 04:44:02;;;;;;;3.47;1.95;;;;;;;12.01;43.03;94389.88;4991290;28;20618;-71
2023/04/16 04:46:28;;;;;;;2.92;2.00;;;;;;;11.98;43.15;94392.84;4987989;28;20295;-70
2023/04/16 04:48:53;;;;;;;4.47;2.00;;;;;;;12.01;43.39;94394.31;4995205;28;20223;-71
2023/04/16 04:51:18;;;;;;;4.80;2.22;;;;;;;12.04;43.21;94393.97;4979400;28;20214;-69
2023/04/16 04:53:44;;;;;;;5.10;2.15;;;;;;;12.13;42.90;94399.00;4992871;28;20243;-70
2023/04/16 04:56:09;;;;;;;3.08;2.03;;;;;;;12.10;43.00;94388.78;4991205;28;20618;-69
2023/04/16 04:58:35;;;;;;;2.85;2.08;;;;;;;12.12;43.04;94402.63;4990703;28;20223;-69
2023/04/16 05:01:01;;;;;;;3.05;2.10;;;;;;;12.07;43.25;94397.06;4994646;28;20227;-70
2023/04/16 05:03:26;;;;;;;3.63;2.20;;;;;;;12.12;43.18;94394.72;4990720;28;20207;-70
2023/04/16 05:05:52;;;;;;;2.55;1.98;;;;;;;12.19;42.94;94399.28;4990316;28;20296;-70
2023/04/16 05:08:17;;;;;;;5.82;2.10;;;;;;;12.17;42.86;94404.75;4993577;28;20226;-70
2023/04/16 05:10:42;;;;;;;2.78;2.03;;;;;;;12.18;42.85;94403.72;4991653;28;20212;-71
2023/04/16 05:13:08;;;;;;;4.55;2.30;;;;;;;12.19;42.78;94392.22;5001057;28;20334;-70
2023/04/16 05:15:33;;;;;;;2.90;1.90;;;;;;;12.27;42.75;94397.41;4990075;28;20625;-69
2023/04/16 05:17:59;;;;;;;3.55;2.00;;;;;;;12.35;42.85;94386.00;4985454;28;20598;-70
2023/04/16 05:20:24;;;;;;;3.85;2.22;;;;;;;12.34;42.45;94394.88;4993645;28;20223;-69
2023/04/16 05:22:50;;;;;;;5.50;2.35;;;;;;;12.31;42.82;94396.03;4994953;28;20233;-69
2023/04/16 05:25:16;;;;;;;6.40;2.63;;;;;;;12.39;42.46;94391.72;5002182;28;20215;-69
2023/04/16 05:27:42;;;;;;;4.30;2.20;;;;;;;12.45;42.71;94394.44;5011934;28;20309;-69
2023/04/16 05:30:08;;;;;;;2.97;2.38;;;;;;;12.46;42.85;94395.28;4996866;28;20183;-70
2023/04/16 05:32:34;;;;;;;4.32;2.30;;;;;;;12.50;42.53;94399.19;4996098;28;20223;-70
2023/04/16 05:34:59;;;;;;;5.60;2.50;;;;;;;12.51;42.89;94390.28;4996458;28;20304;-70
2023/04/16 05:37:24;;;;;;;7.07;3.15;;;;;;;12.62;42.82;94399.59;4994139;28;20330;-70
2023/04/16 05:39:50;;;;;;;3.88;2.53;;;;;;;12.53;42.88;94397.00;4995925;28;20845;-69
2023/04/16 05:42:15;;;;;;;2.75;2.40;;;;;;;12.63;42.70;94399.41;5000364;28;20191;-67
2023/04/16 05:44:41;;;;;;;6.53;2.78;;;;;;;12.67;42.68;94397.22;4998022;28;20190;-70
2023/04/16 05:47:08;;;;;;;4.88;2.80;;;;;;;12.78;42.57;94387.06;4993915;28;20281;-69
2023/04/16 05:49:34;;;;;;;5.00;2.80;;;;;;;12.56;43.01;94390.56;4993524;28;20223;-70
2023/04/16 05:52:00;;;;;;;4.57;2.88;;;;;;;12.66;42.83;94395.59;4993296;28;20676;-70
2023/04/16 05:54:26;;;;;;;4.13;3.00;;;;;;;12.71;42.72;94395.88;4991475;28;20250;-69
2023/04/16 05:56:51;;;;;;;4.07;2.97;;;;;;;12.76;43.10;94399.59;5003446;28;20210;-70
2023/04/16 05:59:16;;;;;;;5.53;3.72;;;;;;;12.77;43.00;94405.69;4990944;28;20215;-70
2023/04/16 06:01:42;;;;;;;3.97;3.55;;;;;;;12.88;42.73;94404.44;4998136;28;20312;-70
2023/04/16 06:04:07;;;;;;;5.68;4.07;;;;;;;12.82;42.72;94397.25;5001944;28;20223;-70
2023/04/16 06:06:33;;;;;;;5.50;3.17;;;;;;;12.94;42.68;94396.63;5003036;28;20305;-70
2023/04/16 06:08:58;;;;;;;7.38;3.45;;;;;;;13.03;42.37;94397.34;4993883;28;20673;-70
2023/04/16 06:11:24;;;;;;;7.45;3.63;;;;;;;13.12;42.23;94392.78;4995201;28;20641;-70
2023/04/16 06:13:49;;;;;;;5.60;3.90;;;;;;;13.14;42.21;94388.97;4993928;28;20706;-70
2023/04/16 06:16:15;;;;;;;5.10;3.92;;;;;;;12.54;43.69;94392.56;4984585;28;20293;-70
2023/04/16 06:18:41;;;;;;;6.15;3.83;;;;;;;12.92;43.31;94395.16;5002341;28;20694;-70
2023/04/16 06:21:06;;;;;;;6.10;4.70;;;;;;;13.12;42.71;94388.31;4993934;28;20211;-70
2023/04/16 06:23:32;;;;;;;9.85;4.75;;;;;;;13.26;42.40;94392.00;4995476;28;20222;-70
2023/04/16 06:25:57;;;;;;;7.07;4.45;;;;;;;13.34;42.37;94385.78;4995508;28;20216;-70
2023/04/16 06:28:23;;;;;;;7.13;5.03;;;;;;;13.44;42.21;94384.53;5001923;28;20247;-70
2023/04/16 06:30:48;;;;;;;7.22;4.53;;;;;;;13.51;41.73;94384.59;4995734;28;20829;-70
2023/04/16 06:33:14;;;;;;;6.90;4.78;;;;;;;13.58;41.66;94368.81;5009615;28;20664;-70
2023/04/16 06:35:39;;;;;;;8.95;4.97;;;;;;;13.59;41.65;94378.38;5006391;28;20234;-69
2023/04/16 06:38:05;;;;;;;9.35;4.97;;;;;;;13.55;41.94;94377.94;5018289;28;20230;-70
2023/04/16 06:40:30;;;;;;;5.80;4.75;;;;;;;13.75;41.52;94385.28;5012885;28;20288;-70
2023/04/16 06:42:56;;;;;;;7.97;5.13;;;;;;;13.91;41.44;94382.41;5015610;28;20219;-70
2023/04/16 06:45:21;;;;;;;5.70;4.97;;;;;;;14.05;40.65;94383.34;5016027;28;20179;-69
2023/04/16 06:47:46;;;;;;;9.05;5.20;;;;;;;13.74;41.30;94380.97;5014761;28;20265;-70
2023/04/16 06:50:12;;;;;;;8.80;5.20;;;;;;;13.98;40.72;94383.28;5017993;28;20218;-70
2023/04/16 06:52:37;;;;;;;8.35;5.10;;;;;;;13.72;40.96;94386.47;5015405;28;20232;-69
2023/04/16 06:55:03;;;;;;;8.45;4.95;;;;;;;13.85;40.99;94391.91;5022882;28;20227;-70
2023/04/16 06:57:29;;;;;;;6.55;4.88;;;;;;;13.73;41.14;94382.81;5017796;28;20183;-70
2023/04/16 06:59:54;;;;;;;9.07;5.20;;;;;;;13.79;41.27;94376.78;5015103;28;20209;-70
2023/04/16 07:02:20;;;;;;;6.50;5.18;;;;;;;13.95;40.88;94367.78;5012410;28;21057;-71
2023/04/16 07:04:45;;;;;;;8.30;4.65;;;;;;;13.98;41.06;94372.72;5013301;28;20234;-70
2023/04/16 07:07:11;;;;;;;6.40;4.35;;;;;;;14.04;41.10;94376.44;5014399;28;20223;-70
2023/04/16 07:09:36;;;;;;;6.55;4.90;;;;;;;14.10;40.83;94380.94;5017406;28;20250;-70
2023/04/16 07:12:02;;;;;;;5.88;4.43;;;;;;;14.02;41.25;94379.25;5013929;28;20187;-71
2023/04/16 07:14:27;;;;;;;6.15;4.32;;;;;;;14.09;40.83;94388.06;5018132;28;20219;-71
2023/04/16 07:16:52;;;;;;;7.53;4.38;;;;;;;14.07;40.83;94394.56;5013750;28;20246;-71
2023/04/16 07:19:18;;;;;;;5.78;3.70;;;;;;;14.11;40.99;94393.16;5015112;28;20637;-71
2023/04/16 07:21:43;;;;;;;6.18;4.38;;;;;;;14.07;40.95;94387.44;5012167;28;20237;-70
2023/04/16 07:24:10;;;;;;;4.97;3.47;;;;;;;14.08;40.85;94386.41;5012023;28;20211;-70
2023/04/16 07:26:36;;;;;;;5.57;4.05;;;;;;;14.06;40.79;94387.59;5013808;28;20211;-70
2023/04/16 07:29:01;;;;;;;4.97;3.83;;;;;;;14.04;40.88;94385.19;5014299;28;20709;-70
2023/04/16 07:31:27;;;;;;;4.75;3.58;;;;;;;14.05;41.34;94384.16;5012412;28;20230;-70
2023/04/16 07:33:52;;;;;;;5.35;3.95;;;;;;;14.10;41.41;94392.34;5013426;28;20255;-71
2023/04/16 07:36:18;;;;;;;4.82;3.55;;;;;;;14.20;40.79;94385.94;5013560;28;20207;-69
2023/04/16 07:38:43;;;;;;;8.32;3.60;;;;;;;14.13;40.60;94383.22;5018410;28;20197;-70
2023/04/16 07:41:08;;;;;;;5.72;3.28;;;;;;;14.20;40.87;94380.66;5009856;28;20229;-70
2023/04/16 07:43:34;;;;;;;7.57;4.28;;;;;;;14.20;41.22;94385.94;5012225;28;20740;-71
2023/04/16 07:46:00;;;;;;;5.20;3.20;;;;;;;14.24;41.50;94390.63;5024598;28;20226;-70
2023/04/16 07:48:25;;;;;;;5.40;3.47;;;;;;;14.36;40.54;94387.50;5014661;28;20182;-70
2023/04/16 07:50:51;;;;;;;4.75;3.25;;;;;;;14.36;40.75;94383.03;5006088;28;20183;-71
2023/04/16 07:53:16;;;;;;;6.57;3.97;;;;;;;14.40;40.87;94386.91;5032193;28;20242;-71
2023/04/16 07:55:42;;;;;;;5.57;3.28;;;;;;;14.39;40.88;94382.66;4994900;28;20219;-70
2023/04/16 07:58:08;;;;;;;5.28;3.50;;;;;;;14.25;41.43;94380.91;5011827;28;20218;-70
2023/04/16 08:00:34;;;;;;;4.45;3.17;;;;;;;14.42;41.11;94370.88;5013060;28;20195;-70
2023/04/16 08:02:59;;;;;;;5.05;2.95;;;;;;;14.65;40.55;94384.72;5015012;28;20191;-71
2023/04/16 08:05:25;;;;;;;5.13;3.35;;;;;;;14.90;40.32;94379.78;5014623;28;20214;-71
2023/04/16 08:07:50;;;;;;;6.60;2.80;;;;;;;15.11;40.06;94376.25;4984097;28;20215;-70
2023/04/16 08:10:16;;;;;;;5.70;3.20;;;;;;;15.12;39.92;94379.72;5008866;28;20694;-71
2023/04/16 08:12:41;;;;;;;3.63;2.63;;;;;;;15.02;39.68;94372.13;5011416;28;20222;-71
2023/04/16 08:15:07;;;;;;;3.80;2.67;;;;;;;15.37;39.32;94372.09;5017985;28;20647;-71
2023/04/16 08:17:33;;;;;;;3.60;2.63;;;;;;;15.44;39.53;94373.75;5013305;28;20533;-70
2023/04/16 08:19:59;;;;;;;2.95;2.17;;;;;;;14.97;39.95;94379.84;5007213;28;20221;-70
2023/04/16 08:22:25;;;;;;;5.00;2.80;;;;;;;15.10;39.94;94372.00;4997434;28;20302;-71
2023/04/16 08:24:51;;;;;;;4.15;2.00;;;;;;;15.25;39.37;94357.78;5012976;28;20254;-70
2023/04/16 08:27:16;;;;;;;3.92;2.13;;;;;;;15.47;38.89;94361.16;5013967;28;20187;-69
2023/04/16 08:29:42;;;;;;;3.95;2.00;;;;;;;15.72;38.49;94356.19;5012390;28;20255;-71
2023/04/16 08:32:09;;;;;;;5.28;2.72;;;;;;;15.97;38.10;94357.25;5008385;28;20223;-70
2023/04/16 08:34:35;;;;;;;4.40;3.05;;;;;;;16.10;38.33;94361.78;5028116;28;20219;-70
2023/04/16 08:37:00;;;;;;;4.43;2.75;;;;;;;15.94;38.71;94351.53;5012329;28;20226;-70
2023/04/16 08:39:26;;;;;;;6.10;2.65;;;;;;;15.93;38.53;94352.53;5012194;28;20190;-70
2023/04/16 08:41:53;;;;;;;5.47;2.40;;;;;;;16.05;38.14;94350.94;5008495;28;20197;-70
2023/04/16 08:44:32;;;;;;;4.93;2.40;;;;;;;16.30;37.96;94340.56;4994018;28;20242;-70
2023/04/16 08:46:58;;;;;;;6.25;2.78;;;;;;;16.53;37.52;94351.59;5009399;28;20211;-71
2023/04/16 08:49:25;;;;;;;3.60;2.30;;;;;;;16.66;36.95;94353.44;5011186;28;20226;-70
2023/04/16 08:51:52;;;;;;;7.05;3.17;;;;;;;16.25;37.58;94349.16;5011492;28;20222;-71
2023/04/16 08:54:47;;;;;;;5.53;2.83;;;;;;;16.40;37.63;94348.94;5012558;28;20234;-70
2023/04/16 08:57:19;;;;;;;6.68;2.30;;;;;;;16.68;36.92;94348.72;5013370;28;20278;-70
2023/04/16 08:59:48;;;;;;;3.80;2.38;;;;;;;16.71;36.75;94345.66;5027761;28;20219;-71
2023/04/16 09:02:14;;;;;;;6.32;2.38;;;;;;;16.37;37.51;94340.56;5010045;28;20246;-71
2023/04/16 09:04:41;;;;;;;4.38;2.35;;;;;;;16.28;37.64;94337.31;5007677;28;20253;-71
2023/04/16 09:07:08;;;;;;;4.53;2.60;;;;;;;16.32;37.88;94341.19;5011755;28;20264;-70
2023/04/16 09:09:34;;;;;;;4.45;2.08;;;;;;;16.49;37.77;94341.56;5010885;28;20250;-70
2023/04/16 09:12:00;;;;;;;4.88;2.33;;;;;;;16.66;37.57;94339.34;5009075;28;20585;-70
2023/04/16 09:14:25;;;;;;;4.72;2.40;;;;;;;16.85;37.26;94340.38;5007422;28;20246;-70
2023/04/16 09:16:53;;;;;;;4.40;2.20;;;;;;;16.73;37.01;94326.84;5012153;28;20272;-70
2023/04/16 09:19:19;;;;;;;5.80;2.28;;;;;;;17.01;36.79;94334.63;5013953;28;20288;-70
2023/04/16 09:21:47;;;;;;;5.18;2.53;;;;;;;17.20;36.58;94335.59;5013428;28;20230;-70
2023/04/16 09:24:12;;;;;;;4.13;2.35;;;;;;;17.35;36.36;94327.38;5013624;28;20222;-70
2023/04/16 09:26:40;;;;;;;6.20;2.97;;;;;;;17.51;36.21;94321.56;5011140;28;20312;-70
2023/04/16 09:29:05;;;;;;;2.88;2.10;;;;;;;17.52;35.97;94317.88;5012492;28;20251;-70
2023/04/16 09:31:31;;;;;;;2.50;2.08;;;;;;;17.63;35.70;94319.88;5016428;28;20242;-71
2023/04/16 09:34:06;;;;;;;5.30;2.20;;;;;;;18.04;35.09;94331.97;5008097;28;20223;-70
2023/04/16 09:36:32;;;;;;;5.45;2.90;;;;;;;17.83;35.30;94332.28;5005337;28;20293;-70
2023/04/16 09:38:59;;;;;;;4.22;2.28;;;;;;;17.65;35.50;94330.31;5002969;28;20210;-70
2023/04/16 09:41:29;;;;;;;4.90;2.38;;;;;;;17.87;35.13;94324.69;5012353;28;20318;-70
2023/04/16 09:44:00;;;;;;;3.58;2.05;;;;;;;18.07;34.64;94323.53;5011098;28;20226;-70
2023/04/16 09:46:36;;;;;;;4.10;2.10;;;;;;;18.24;34.20;94318.50;5004664;28;20231;-70
2023/04/16 09:49:32;;;;;;;4.70;2.47;;;;;;;18.30;34.00;94320.28;4997343;28;20242;-70
2023/04/16 09:51:58;;;;;;;4.75;2.30;;;;;;;18.30;34.04;94314.16;4998752;28;20227;-71
2023/04/16 09:54:25;;;;;;;3.13;2.20;;;;;;;18.19;34.16;94312.19;5010101;28;20260;-70
2023/04/16 09:56:54;;;;;;;4.20;2.20;;;;;;;18.17;34.47;94309.75;5011974;28;20203;-71
2023/04/16 09:59:21;;;;;;;4.85;2.38;;;;;;;18.03;34.43;94305.56;5015009;28;20597;-71
2023/04/16 10:01:52;;;;;;;4.05;2.20;;;;;;;17.98;34.40;94310.72;5010151;28;20231;-70
2023/04/16 10:04:18;;;;;;;4.00;2.28;;;;;;;17.98;33.71;94303.53;5010449;28;20219;-70
2023/04/16 10:07:02;;;;;;;3.67;2.17;;;;;;;17.59;34.56;94292.09;5010770;28;20226;-70
2023/04/16 10:09:31;;;;;;;4.43;2.40;;;;;;;17.43;34.85;94292.59;5011968;28;20273;-70
2023/04/16 10:11:57;;;;;;;3.70;2.22;;;;;;;17.66;34.43;94296.56;5016148;28;20199;-65
2023/04/16 10:14:22;;;;;;;5.82;2.35;;;;;;;17.72;34.18;94296.53;5011977;28;20218;-65
2023/04/16 10:16:48;;;;;;;5.53;2.55;;;;;;;17.66;34.72;94299.22;5000504;28;20273;-65
2023/04/16 10:19:14;;;;;;;4.38;2.22;;;;;;;17.78;34.42;94294.84;5016096;28;20227;-65
2023/04/16 10:21:39;;;;;;;5.50;2.70;;;;;;;18.07;34.42;94291.63;5012479;28;20226;-65
2023/04/16 10:24:07;;;;;;;6.40;2.35;;;;;;;18.24;33.96;94294.56;5011060;28;20192;-65
2023/04/16 10:26:32;;;;;;;5.15;2.47;;;;;;;18.29;33.88;94293.91;5004371;28;20225;-65
2023/04/16 10:28:58;;;;;;;4.55;2.33;;;;;;;18.35;33.21;94282.41;5016264;28;20295;-65
2023/04/16 10:31:26;;;;;;;3.03;2.28;;;;;;;18.46;32.94;94280.88;5015297;28;20222;-65
2023/04/16 10:33:51;;;;;;;3.65;2.50;;;;;;;18.62;32.78;94276.84;5013012;28;20219;-65
2023/04/16 10:36:23;;;;;;;3.33;2.10;;;;;;;18.82;32.20;94274.84;5015261;28;20198;-65
2023/04/16 10:38:51;;;;;;;5.07;2.58;;;;;;;19.07;31.82;94271.28;5009707;28;20261;-65
2023/04/16 10:41:19;;;;;;;4.68;2.13;;;;;;;19.39;31.76;94279.91;5026731;28;20564;-65
2023/04/16 10:43:47;;;;;;;4.50;2.53;;;;;;;19.25;31.38;94279.28;5017991;28;20295;-65
2023/04/16 10:46:18;;;;;;;6.07;2.20;;;;;;;19.31;31.37;94270.38;5014004;28;20250;-65
2023/04/16 10:48:44;;;;;;;4.38;2.00;;;;;;;19.52;31.04;94273.63;5018957;28;20312;-65
2023/04/16 10:51:33;;;;;;;6.05;2.20;;;;;;;19.78;30.86;94270.63;5014015;28;20240;-65
2023/04/16 10:54:03;;;;;;;3.53;2.05;;;;;;;19.75;30.96;94270.25;5006032;28;20246;-64
2023/04/16 10:56:32;;;;;;;4.50;2.70;;;;;;;19.76;31.04;94264.69;5019432;28;20225;-65
2023/04/16 10:58:57;;;;;;;4.22;2.17;;;;;;;20.08;30.38;94261.78;5013439;28;20227;-65
2023/04/16 11:01:34;;;;;;;4.93;2.22;;;;;;;20.60;29.39;94267.31;5012935;28;20769;-65
2023/04/16 11:04:20;;;;;;;3.50;2.20;;;;;;;20.57;29.39;94258.94;5017036;28;20217;-65
2023/04/16 11:07:06;;;;;;;3.45;2.20;;;;;;;20.72;29.19;94264.66;5009569;28;20242;-65
2023/04/16 11:09:51;;;;;;;3.78;2.30;;;;;;;20.67;28.67;94257.31;5015398;28;20182;-65
2023/04/16 11:12:21;;;;;;;3.75;2.20;;;;;;;20.64;28.47;94257.78;5014335;28;20194;-66
2023/04/16 11:15:13;;;;;;;3.55;2.25;;;;;;;20.57;28.75;94248.25;5012973;28;20277;-65
2023/04/16 11:17:44;;;;;;;2.92;2.22;;;;;;;20.46;29.11;94245.31;5009217;28;20326;-67
2023/04/16 11:20:18;;;;;;;4.30;2.20;;;;;;;20.54;29.08;94246.06;5005713;28;20230;-67
2023/04/16 11:22:44;;;;;;;4.22;2.40;;;;;;;20.28;28.66;94240.09;5015719;28;20221;-67
2023/04/16 11:25:10;;;;;;;4.70;2.22;;;;;;;20.28;29.21;94243.56;5020019;28;20233;-67
2023/04/16 11:27:36;;;;;;;3.45;2.00;;;;;;;20.23;29.52;94234.63;5010765;28;20229;-67
2023/04/16 11:30:03;;;;;;;2.42;1.67;;;;;;;19.94;30.02;94236.31;5016347;28;20448;-67
2023/04/16 11:32:36;;;;;;;4.45;2.40;;;;;;;19.87;30.20;94227.59;5015477;28;20600;-67